Time;durP1;ratioP1;P1;durP2;ratioP2;P2;SDS_P1;SDS_P2;PMS_P1;PMS_P2;Temp;Humidity;BMP_temperature;BMP_pressure;BME280_temperature;BME280_humidity;BME280_pressure;Samples;Min_cycle;Max_cycle;Signal;HPM_P1;HPM_P2
2024/02/15 00:00:34;;;;;;;6.47;5.87;;;8.90;99.90;;;;;;4967946;28;21069;-73
2024/02/15 00:03:00;;;;;;;7.33;6.73;;;8.90;99.90;;;;;;4971884;28;20540;-73
2024/02/15 00:05:29;;;;;;;6.40;5.80;;;8.90;99.90;;;;;;4971803;28;20213;-73
2024/02/15 00:07:55;;;;;;;6.77;6.20;;;8.90;99.90;;;;;;4971458;28;20732;-73
2024/02/15 00:10:24;;;;;;;7.10;6.40;;;8.90;99.90;;;;;;4971464;28;20297;-73
2024/02/15 00:12:52;;;;;;;7.17;6.07;;;8.90;99.90;;;;;;4971735;28;20218;-73
2024/02/15 00:15:19;;;;;;;6.80;6.30;;;8.90;99.90;;;;;;4967272;28;20210;-73
2024/02/15 00:17:47;;;;;;;6.70;6.10;;;8.90;99.90;;;;;;4952280;28;20253;-73
2024/02/15 00:20:14;;;;;;;7.00;6.40;;;8.90;99.90;;;;;;4952074;28;20222;-73
2024/02/15 00:22:43;;;;;;;7.00;6.30;;;8.90;99.90;;;;;;4963731;28;20262;-73
2024/02/15 00:25:11;;;;;;;7.17;6.47;;;8.90;99.90;;;;;;4971635;28;20320;-73
2024/02/15 00:27:37;;;;;;;7.27;6.53;;;8.90;99.90;;;;;;4971706;28;20254;-73
2024/02/15 00:30:07;;;;;;;7.10;6.40;;;9.00;99.90;;;;;;4971376;28;20242;-73
2024/02/15 00:32:34;;;;;;;7.30;6.50;;;8.90;99.90;;;;;;4971531;28;20230;-73
2024/02/15 00:35:01;;;;;;;7.20;6.53;;;8.90;99.90;;;;;;4971372;28;20323;-73
2024/02/15 00:37:28;;;;;;;7.33;6.43;;;9.00;99.90;;;;;;4970986;28;20292;-73
2024/02/15 00:39:56;;;;;;;6.63;6.03;;;8.90;99.90;;;;;;4971029;28;20210;-73
2024/02/15 00:42:23;;;;;;;8.23;6.50;;;8.90;99.90;;;;;;4971047;28;20215;-73
2024/02/15 00:44:50;;;;;;;8.03;6.50;;;8.90;99.90;;;;;;4971406;28;20309;-74
2024/02/15 00:47:19;;;;;;;7.40;6.70;;;9.00;99.90;;;;;;4971215;28;20207;-74
2024/02/15 00:49:46;;;;;;;7.87;7.07;;;9.00;99.90;;;;;;4971127;28;20585;-74
2024/02/15 00:52:13;;;;;;;8.10;7.40;;;9.00;99.90;;;;;;4970794;28;20230;-74
2024/02/15 00:54:40;;;;;;;8.53;7.73;;;9.10;99.90;;;;;;4970324;28;20674;-74
2024/02/15 00:57:08;;;;;;;8.30;7.60;;;9.00;99.90;;;;;;4970913;28;20207;-74
2024/02/15 00:59:35;;;;;;;8.57;7.77;;;9.00;99.90;;;;;;4970614;28;20654;-74
2024/02/15 01:02:03;;;;;;;13.00;8.40;;;9.10;99.90;;;;;;4970917;28;20206;-74
2024/02/15 01:04:30;;;;;;;10.63;8.43;;;9.10;99.90;;;;;;4970972;28;20214;-75
2024/02/15 01:06:57;;;;;;;10.30;8.93;;;9.20;99.90;;;;;;4970200;28;20305;-75
2024/02/15 01:09:24;;;;;;;13.53;8.73;;;9.10;99.90;;;;;;4971058;28;20329;-75
2024/02/15 01:11:51;;;;;;;11.70;8.77;;;9.10;99.90;;;;;;4970172;28;20301;-75
2024/02/15 01:14:19;;;;;;;10.87;8.53;;;9.10;99.90;;;;;;4969911;28;20633;-73
2024/02/15 01:16:46;;;;;;;9.87;8.60;;;9.00;99.90;;;;;;4970181;28;20688;-73
2024/02/15 01:19:13;;;;;;;9.63;8.73;;;9.00;99.90;;;;;;4970003;28;20813;-73
2024/02/15 01:21:40;;;;;;;9.80;8.23;;;9.10;99.90;;;;;;4969900;28;20299;-73
2024/02/15 01:24:10;;;;;;;11.77;9.53;;;9.00;99.90;;;;;;4970250;28;20239;-73
2024/02/15 01:26:37;;;;;;;10.77;9.70;;;9.10;99.90;;;;;;4970698;28;20215;-73
2024/02/15 01:29:03;;;;;;;10.70;8.80;;;9.00;99.90;;;;;;4970421;28;20300;-73
2024/02/15 01:31:32;;;;;;;11.20;9.10;;;9.00;99.90;;;;;;4954290;28;20233;-73
2024/02/15 01:33:59;;;;;;;10.57;9.03;;;9.10;99.90;;;;;;4951245;29;20302;-73
2024/02/15 01:36:26;;;;;;;10.03;9.10;;;9.00;99.90;;;;;;4950824;29;20211;-73
2024/02/15 01:38:53;;;;;;;11.10;9.63;;;9.00;99.90;;;;;;4950994;29;20694;-74
2024/02/15 01:41:20;;;;;;;10.37;9.23;;;9.10;99.90;;;;;;4951061;29;20661;-73
2024/02/15 01:43:47;;;;;;;9.97;8.97;;;9.00;99.90;;;;;;4951088;28;20259;-73
2024/02/15 01:46:15;;;;;;;9.70;8.80;;;9.00;99.90;;;;;;4950462;28;20700;-73
2024/02/15 01:48:44;;;;;;;10.70;9.00;;;9.10;99.90;;;;;;4955137;28;20258;-73
2024/02/15 01:51:13;;;;;;;10.73;8.47;;;9.10;99.90;;;;;;4970042;28;20218;-73
2024/02/15 01:53:42;;;;;;;9.40;8.57;;;9.10;99.90;;;;;;4969624;28;20266;-74
2024/02/15 01:56:11;;;;;;;9.97;9.07;;;9.10;99.90;;;;;;4966578;28;20287;-74
2024/02/15 01:58:40;;;;;;;12.07;9.70;;;9.10;99.90;;;;;;4950891;29;20211;-75
2024/02/15 02:01:07;;;;;;;12.00;8.73;;;9.10;99.90;;;;;;4950592;28;20215;-74
2024/02/15 02:03:34;;;;;;;10.87;9.83;;;9.10;99.90;;;;;;4950337;28;20211;-74
2024/02/15 02:06:03;;;;;;;11.60;9.47;;;9.10;99.90;;;;;;4950365;29;20307;-75
2024/02/15 02:08:30;;;;;;;11.03;9.93;;;9.10;99.90;;;;;;4950669;29;20235;-74
2024/02/15 02:10:57;;;;;;;12.80;10.70;;;9.20;99.90;;;;;;4950561;29;20294;-75
2024/02/15 02:13:24;;;;;;;11.13;10.03;;;9.00;99.90;;;;;;4955744;28;20234;-74
2024/02/15 02:15:51;;;;;;;11.13;10.03;;;9.10;99.90;;;;;;4969532;28;20294;-74
2024/02/15 02:18:18;;;;;;;12.50;11.00;;;9.10;99.90;;;;;;4950902;28;20303;-74
2024/02/15 02:20:45;;;;;;;14.73;10.73;;;9.20;99.90;;;;;;4968583;28;20294;-74
2024/02/15 02:23:16;;;;;;;12.13;10.87;;;9.20;99.90;;;;;;4969085;28;20289;-74
2024/02/15 02:25:49;;;;;;;13.57;11.67;;;9.10;99.90;;;;;;4969725;28;20221;-74
2024/02/15 02:28:16;;;;;;;15.27;11.87;;;9.10;99.90;;;;;;4969890;28;20258;-74
2024/02/15 02:30:45;;;;;;;14.33;11.47;;;9.10;99.90;;;;;;4969843;28;20207;-74
2024/02/15 02:33:18;;;;;;;15.37;12.33;;;9.10;99.90;;;;;;4969438;28;20559;-74
2024/02/15 02:35:45;;;;;;;14.80;11.80;;;9.10;99.90;;;;;;4969311;28;20581;-75
2024/02/15 02:38:14;;;;;;;15.53;12.60;;;9.10;99.90;;;;;;4969294;28;20302;-74
2024/02/15 02:40:41;;;;;;;18.43;12.30;;;9.10;99.90;;;;;;4969232;28;20219;-74
2024/02/15 02:43:09;;;;;;;16.97;12.43;;;9.10;99.90;;;;;;4968813;28;20246;-74
2024/02/15 02:45:36;;;;;;;14.83;12.53;;;9.20;99.90;;;;;;4969471;28;20294;-74
2024/02/15 02:48:04;;;;;;;16.87;12.33;;;9.10;99.90;;;;;;4969508;28;20648;-74
2024/02/15 02:50:31;;;;;;;15.97;12.77;;;9.10;99.90;;;;;;4969507;28;20210;-75
2024/02/15 02:52:59;;;;;;;17.37;12.57;;;9.10;99.90;;;;;;4967005;28;20703;-74
2024/02/15 02:55:27;;;;;;;17.07;12.53;;;9.20;99.90;;;;;;4968767;28;20219;-74
2024/02/15 02:57:54;;;;;;;15.33;12.90;;;9.20;99.90;;;;;;4968794;28;20207;-74
2024/02/15 03:00:23;;;;;;;15.73;12.00;;;9.10;99.90;;;;;;4969005;28;20207;-74
2024/02/15 03:02:50;;;;;;;17.30;12.67;;;9.20;99.90;;;;;;4969169;28;20242;-74
2024/02/15 03:05:20;;;;;;;14.60;12.30;;;9.20;99.90;;;;;;4968889;28;20207;-74
2024/02/15 03:07:47;;;;;;;16.40;12.77;;;9.20;99.90;;;;;;4968770;28;20199;-74
2024/02/15 03:10:15;;;;;;;16.87;12.87;;;9.20;99.90;;;;;;4968769;28;20334;-74
2024/02/15 03:12:46;;;;;;;18.47;12.60;;;9.20;99.90;;;;;;4968828;28;20712;-74
2024/02/15 03:15:14;;;;;;;18.17;13.60;;;9.20;99.90;;;;;;4968656;28;20203;-74
2024/02/15 03:17:43;;;;;;;17.80;13.20;;;9.20;99.90;;;;;;4967068;28;20254;-74
2024/02/15 03:20:20;;;;;;;15.87;12.20;;;9.20;99.90;;;;;;4962479;28;20211;-74
2024/02/15 03:22:51;;;;;;;18.20;13.23;;;9.20;99.90;;;;;;4961798;28;20273;-75
2024/02/15 03:25:18;;;;;;;17.07;12.90;;;9.10;99.90;;;;;;4957277;28;20191;-74
2024/02/15 03:27:45;;;;;;;15.50;12.73;;;9.20;99.90;;;;;;4962593;28;20235;-74
2024/02/15 03:30:13;;;;;;;15.83;12.20;;;9.20;99.90;;;;;;4967469;28;20298;-75
2024/02/15 03:32:42;;;;;;;17.13;13.17;;;9.20;99.90;;;;;;4966308;28;20261;-75
2024/02/15 03:35:09;;;;;;;17.63;13.33;;;9.30;99.90;;;;;;4965759;28;20301;-75
2024/02/15 03:37:38;;;;;;;16.87;11.80;;;9.20;99.90;;;;;;4966157;28;21207;-75
2024/02/15 03:40:05;;;;;;;16.80;12.97;;;9.20;99.90;;;;;;4966051;28;20337;-75
2024/02/15 03:42:32;;;;;;;18.33;13.33;;;9.20;99.90;;;;;;4966177;28;20297;-75
2024/02/15 03:45:00;;;;;;;18.53;13.67;;;9.10;99.90;;;;;;4966350;28;20214;-74
2024/02/15 03:47:28;;;;;;;21.83;13.37;;;9.20;99.90;;;;;;4966401;28;20258;-75
2024/02/15 03:49:57;;;;;;;17.53;12.53;;;9.20;99.90;;;;;;4966091;28;20234;-74
2024/02/15 03:52:24;;;;;;;14.63;12.40;;;9.20;99.90;;;;;;4965707;28;20338;-75
2024/02/15 03:54:52;;;;;;;17.53;13.43;;;9.20;99.90;;;;;;4960846;28;20292;-75
2024/02/15 03:57:20;;;;;;;16.43;13.37;;;9.10;99.90;;;;;;4962980;28;20579;-75
2024/02/15 03:59:50;;;;;;;17.50;13.50;;;9.20;99.90;;;;;;4960109;28;20214;-75
2024/02/15 04:02:17;;;;;;;17.27;12.67;;;9.20;99.90;;;;;;4947344;28;20587;-75
2024/02/15 04:04:47;;;;;;;16.33;12.43;;;9.20;99.90;;;;;;4947930;28;20207;-75
2024/02/15 04:07:16;;;;;;;15.50;12.57;;;9.20;99.90;;;;;;4947588;28;20302;-75
2024/02/15 04:09:42;;;;;;;19.20;12.50;;;9.20;99.90;;;;;;4948459;28;21021;-75
2024/02/15 04:12:09;;;;;;;18.73;12.87;;;9.20;99.90;;;;;;4948599;28;20299;-75
2024/02/15 04:14:38;;;;;;;17.40;12.70;;;9.20;99.90;;;;;;4948865;28;20238;-75
2024/02/15 04:17:05;;;;;;;15.57;11.80;;;9.20;99.90;;;;;;4948637;28;20625;-75
2024/02/15 04:19:32;;;;;;;14.57;12.00;;;9.20;99.90;;;;;;4948836;28;20263;-75
2024/02/15 04:22:00;;;;;;;16.80;12.50;;;9.20;99.90;;;;;;4948236;28;20250;-75
2024/02/15 04:24:28;;;;;;;15.93;12.27;;;9.20;99.90;;;;;;4954121;28;20483;-75
2024/02/15 04:26:56;;;;;;;15.77;12.53;;;9.30;99.90;;;;;;4967679;28;20705;-74
2024/02/15 04:29:23;;;;;;;17.17;12.57;;;9.20;99.90;;;;;;4967858;28;20231;-75
2024/02/15 04:31:50;;;;;;;17.00;12.70;;;9.20;99.90;;;;;;4967818;28;20238;-75
2024/02/15 04:34:17;;;;;;;17.77;12.83;;;9.20;99.90;;;;;;4967279;28;20259;-75
2024/02/15 04:36:49;;;;;;;18.17;12.27;;;9.30;99.90;;;;;;4967546;28;20210;-75
2024/02/15 04:39:24;;;;;;;15.57;11.80;;;9.20;99.90;;;;;;4967367;28;20203;-75
2024/02/15 04:41:52;;;;;;;14.93;12.50;;;9.30;99.90;;;;;;4967811;28;20241;-75
2024/02/15 04:44:20;;;;;;;16.37;12.57;;;9.30;99.90;;;;;;4967215;28;20258;-75
2024/02/15 04:46:49;;;;;;;16.57;12.70;;;9.30;99.90;;;;;;4968198;28;20218;-75
2024/02/15 04:49:16;;;;;;;16.00;12.03;;;9.30;99.90;;;;;;4971150;28;20684;-75
2024/02/15 04:51:43;;;;;;;16.50;12.30;;;9.30;99.90;;;;;;4970698;28;20273;-75
2024/02/15 04:54:13;;;;;;;15.77;11.87;;;9.30;99.90;;;;;;4971010;28;20210;-74
2024/02/15 04:56:40;;;;;;;15.93;11.73;;;9.20;99.90;;;;;;4971233;28;20673;-75
2024/02/15 04:59:09;;;;;;;16.47;12.17;;;9.20;99.90;;;;;;4971031;28;20250;-75
2024/02/15 05:01:36;;;;;;;17.13;12.63;;;9.20;99.90;;;;;;4971243;28;20298;-75
2024/02/15 05:04:04;;;;;;;16.80;11.50;;;9.30;99.90;;;;;;4970432;28;20301;-75
2024/02/15 05:06:32;;;;;;;16.83;11.97;;;9.30;99.90;;;;;;4970759;28;20207;-75
2024/02/15 05:08:59;;;;;;;16.83;12.17;;;9.30;99.90;;;;;;4970981;28;20266;-75
2024/02/15 05:11:28;;;;;;;16.73;12.30;;;9.30;99.90;;;;;;4971325;28;20237;-75
2024/02/15 05:13:55;;;;;;;18.83;11.90;;;9.30;99.90;;;;;;4970679;28;20207;-74
2024/02/15 05:16:24;;;;;;;14.80;12.00;;;9.30;99.90;;;;;;4970843;28;20242;-75
2024/02/15 05:18:51;;;;;;;14.97;11.90;;;9.30;99.90;;;;;;4970845;28;20214;-75
2024/02/15 05:21:17;;;;;;;16.57;12.70;;;9.30;99.90;;;;;;4970769;28;20305;-75
2024/02/15 05:23:44;;;;;;;16.93;11.97;;;9.40;99.90;;;;;;4970494;28;20242;-75
2024/02/15 05:26:13;;;;;;;18.53;12.40;;;9.40;99.90;;;;;;4970771;28;20211;-75
2024/02/15 05:28:39;;;;;;;16.97;12.33;;;9.40;99.90;;;;;;4970809;28;20218;-75
2024/02/15 05:31:16;;;;;;;16.80;12.03;;;9.40;99.90;;;;;;4970792;28;20215;-74
2024/02/15 05:33:45;;;;;;;15.17;11.60;;;9.40;99.90;;;;;;4970709;28;20203;-75
2024/02/15 05:36:12;;;;;;;15.77;10.87;;;9.40;99.90;;;;;;4970619;28;20505;-75
2024/02/15 05:38:40;;;;;;;14.93;11.67;;;9.40;99.90;;;;;;4970490;28;20206;-75
2024/02/15 05:41:08;;;;;;;15.50;11.73;;;9.30;99.90;;;;;;4970300;28;20217;-75
2024/02/15 05:43:36;;;;;;;15.43;11.00;;;9.40;99.90;;;;;;4970676;28;20207;-74
2024/02/15 05:46:03;;;;;;;15.30;11.17;;;9.40;99.90;;;;;;4970575;28;20218;-75
2024/02/15 05:48:30;;;;;;;15.67;11.30;;;9.40;99.90;;;;;;4970398;28;20310;-75
2024/02/15 05:51:00;;;;;;;18.63;12.13;;;9.40;99.90;;;;;;4970294;28;20725;-75
2024/02/15 05:53:27;;;;;;;16.23;10.97;;;9.30;99.90;;;;;;4965278;28;20237;-75
2024/02/15 05:55:54;;;;;;;16.77;11.10;;;9.30;99.90;;;;;;4969155;28;20211;-75
2024/02/15 05:58:21;;;;;;;17.97;10.97;;;9.40;99.90;;;;;;4969889;28;20211;-75
2024/02/15 06:00:49;;;;;;;14.93;11.20;;;9.40;99.90;;;;;;4969884;28;20302;-75
2024/02/15 06:03:16;;;;;;;17.23;10.53;;;9.50;99.90;;;;;;4970065;28;20581;-75
2024/02/15 06:05:43;;;;;;;15.70;11.17;;;9.50;99.90;;;;;;4969533;28;20218;-74
2024/02/15 06:08:12;;;;;;;14.73;10.87;;;9.40;99.90;;;;;;4969845;28;20310;-75
2024/02/15 06:10:40;;;;;;;13.30;10.33;;;9.40;99.90;;;;;;4969464;28;20241;-75
2024/02/15 06:13:08;;;;;;;14.93;11.47;;;9.50;99.90;;;;;;4970040;28;20207;-75
2024/02/15 06:15:35;;;;;;;16.57;11.73;;;9.50;99.90;;;;;;4970058;28;20273;-75
2024/02/15 06:18:08;;;;;;;15.33;10.47;;;9.50;99.90;;;;;;4969841;28;20298;-75
2024/02/15 06:20:35;;;;;;;14.77;11.17;;;9.50;99.90;;;;;;4969827;28;20282;-75
2024/02/15 06:23:04;;;;;;;13.20;10.13;;;9.50;99.90;;;;;;4965673;28;20271;-75
2024/02/15 06:25:33;;;;;;;14.17;10.47;;;9.50;99.90;;;;;;4950077;29;20585;-75
2024/02/15 06:28:02;;;;;;;15.13;10.70;;;9.60;99.90;;;;;;4950153;29;20267;-75
2024/02/15 06:41:43;;;;;;;14.23;10.17;;;9.50;99.90;;;;;;4936956;28;20214;-75
2024/02/15 06:44:10;;;;;;;13.43;10.23;;;9.60;99.90;;;;;;4949750;29;20294;-74
2024/02/15 06:46:36;;;;;;;17.33;10.87;;;9.50;99.90;;;;;;4950159;28;20204;-74
2024/02/15 06:49:04;;;;;;;14.27;10.03;;;9.60;99.90;;;;;;4949589;29;20270;-74
2024/02/15 06:51:31;;;;;;;16.43;10.83;;;9.70;99.90;;;;;;4949439;28;20227;-75
2024/02/15 06:53:58;;;;;;;14.70;10.37;;;9.60;99.90;;;;;;4960193;28;20325;-75
2024/02/15 06:56:25;;;;;;;14.27;10.13;;;9.70;99.90;;;;;;4968736;28;20294;-75
2024/02/15 06:58:54;;;;;;;11.93;9.60;;;9.70;99.90;;;;;;4968938;28;20217;-75
2024/02/15 07:01:21;;;;;;;14.93;10.43;;;9.70;99.90;;;;;;4968994;28;20224;-75
2024/02/15 07:03:48;;;;;;;13.63;10.80;;;9.70;99.90;;;;;;4968713;28;20293;-75
2024/02/15 07:06:15;;;;;;;14.97;10.70;;;9.70;99.90;;;;;;4968692;28;20207;-75
2024/02/15 07:08:42;;;;;;;13.13;10.33;;;9.70;99.90;;;;;;4969081;28;20246;-75
2024/02/15 07:11:09;;;;;;;14.73;10.73;;;9.70;99.90;;;;;;4967495;28;20274;-74
2024/02/15 07:13:37;;;;;;;16.47;10.40;;;9.80;99.90;;;;;;4968911;28;20215;-75
2024/02/15 07:16:08;;;;;;;14.03;10.00;;;9.80;99.90;;;;;;4968837;28;20215;-75
2024/02/15 07:18:35;;;;;;;13.33;10.03;;;9.70;99.90;;;;;;4968761;28;20305;-75
2024/02/15 07:21:03;;;;;;;14.33;10.40;;;9.80;99.90;;;;;;4968530;28;20210;-75
2024/02/15 07:23:30;;;;;;;16.13;11.30;;;9.80;99.90;;;;;;4961064;28;20243;-75
2024/02/15 07:25:57;;;;;;;15.27;10.47;;;9.70;99.90;;;;;;4949245;28;20239;-75
2024/02/15 07:28:26;;;;;;;13.17;9.67;;;9.70;99.90;;;;;;4949097;29;20294;-75
2024/02/15 07:30:54;;;;;;;11.90;10.30;;;9.80;99.90;;;;;;4948859;28;20243;-75
2024/02/15 07:33:23;;;;;;;13.47;10.50;;;9.90;99.90;;;;;;4949358;28;20235;-75
2024/02/15 07:35:51;;;;;;;14.60;10.77;;;9.80;99.90;;;;;;4949316;29;20298;-75
2024/02/15 07:38:18;;;;;;;14.53;10.40;;;9.90;99.90;;;;;;4948671;29;20689;-75
2024/02/15 07:40:45;;;;;;;12.53;10.27;;;9.80;99.90;;;;;;4948786;29;20211;-75
2024/02/15 07:43:12;;;;;;;12.57;10.03;;;9.90;99.90;;;;;;4948606;29;20246;-75
2024/02/15 07:45:39;;;;;;;16.23;10.37;;;9.80;99.90;;;;;;4948857;29;20258;-75
2024/02/15 07:48:06;;;;;;;16.70;11.57;;;9.90;99.90;;;;;;4949072;28;20239;-74
2024/02/15 07:50:37;;;;;;;15.23;11.17;;;9.80;99.90;;;;;;4948733;29;20235;-74
2024/02/15 07:53:06;;;;;;;14.13;10.33;;;9.90;99.90;;;;;;4963819;28;20235;-75
2024/02/15 07:55:33;;;;;;;14.03;10.13;;;9.90;99.90;;;;;;4968118;28;20733;-75
2024/02/15 07:58:01;;;;;;;15.63;10.57;;;9.80;99.90;;;;;;4968385;28;20617;-75
2024/02/15 08:00:29;;;;;;;13.40;9.80;;;9.90;99.90;;;;;;4968431;28;20210;-75
2024/02/15 08:02:57;;;;;;;12.73;9.47;;;9.90;99.90;;;;;;4968236;28;20625;-75
2024/02/15 08:05:24;;;;;;;12.77;9.50;;;10.00;99.90;;;;;;4968069;28;20218;-75
2024/02/15 08:07:57;;;;;;;13.67;9.23;;;10.00;99.90;;;;;;4967836;28;20757;-75
2024/02/15 08:10:24;;;;;;;13.43;10.23;;;9.90;99.90;;;;;;4968225;28;20230;-75
2024/02/15 08:12:52;;;;;;;14.00;9.60;;;10.00;99.90;;;;;;4967904;28;20309;-75
2024/02/15 08:15:19;;;;;;;13.30;10.10;;;9.90;99.90;;;;;;4968460;28;20822;-74
2024/02/15 08:17:47;;;;;;;11.73;9.23;;;9.90;99.90;;;;;;4967618;28;20230;-75
2024/02/15 08:20:15;;;;;;;12.07;9.30;;;9.90;99.90;;;;;;4967778;28;20207;-75
2024/02/15 08:22:43;;;;;;;12.20;9.40;;;9.90;99.90;;;;;;4968909;28;20293;-75
2024/02/15 08:25:13;;;;;;;11.93;9.27;;;10.00;99.90;;;;;;4952606;28;20220;-75
2024/02/15 08:27:42;;;;;;;12.07;9.80;;;10.00;99.90;;;;;;4952357;29;20242;-75
2024/02/15 08:30:11;;;;;;;12.70;9.73;;;10.00;99.90;;;;;;4952641;28;20410;-75
2024/02/15 08:32:39;;;;;;;13.10;9.23;;;10.00;99.90;;;;;;4952430;29;20254;-75
2024/02/15 08:35:08;;;;;;;12.77;9.47;;;10.00;99.90;;;;;;4952306;29;20212;-75
2024/02/15 08:37:35;;;;;;;11.07;8.90;;;10.10;99.90;;;;;;4952461;28;20216;-75
2024/02/15 08:40:04;;;;;;;11.50;9.03;;;10.00;99.90;;;;;;4952153;28;20235;-75
2024/02/15 08:42:32;;;;;;;12.97;9.30;;;10.00;99.90;;;;;;4952047;29;20243;-74
2024/02/15 08:44:59;;;;;;;13.27;9.43;;;10.00;99.90;;;;;;4952429;29;20657;-75
2024/02/15 08:47:26;;;;;;;10.67;9.40;;;10.10;99.90;;;;;;4952918;28;20211;-75
2024/02/15 08:49:53;;;;;;;10.80;9.27;;;10.20;99.90;;;;;;4979999;28;20237;-75
2024/02/15 08:52:20;;;;;;;11.27;9.13;;;10.10;99.90;;;;;;4990310;28;20780;-75
2024/02/15 08:54:47;;;;;;;11.60;8.60;;;10.20;99.90;;;;;;4973239;28;20215;-75
2024/02/15 08:57:14;;;;;;;10.53;9.10;;;10.20;99.90;;;;;;4971535;28;20286;-74
2024/02/15 08:59:42;;;;;;;14.37;11.97;;;10.20;99.90;;;;;;4971343;28;20223;-75
2024/02/15 09:02:09;;;;;;;20.27;17.03;;;10.30;99.90;;;;;;4970954;28;20206;-75
2024/02/15 09:04:36;;;;;;;13.13;11.63;;;10.30;99.90;;;;;;4971210;28;20358;-75
2024/02/15 09:07:04;;;;;;;24.90;19.33;;;10.40;99.90;;;;;;4970921;28;20257;-75
2024/02/15 09:09:33;;;;;;;18.83;13.83;;;10.40;99.90;;;;;;4970663;28;20203;-75
2024/02/15 09:12:05;;;;;;;10.27;8.30;;;10.40;99.90;;;;;;4970416;28;20281;-75
2024/02/15 09:14:32;;;;;;;9.37;8.30;;;10.40;99.90;;;;;;4970775;28;20290;-75
2024/02/15 09:17:01;;;;;;;9.70;8.70;;;10.40;99.90;;;;;;4970762;28;20242;-75
2024/02/15 09:19:28;;;;;;;9.43;8.00;;;10.50;99.90;;;;;;4970764;28;20257;-76
2024/02/15 09:21:56;;;;;;;10.97;8.60;;;10.40;99.90;;;;;;4970324;28;20658;-75
2024/02/15 09:24:25;;;;;;;9.50;8.50;;;10.40;99.90;;;;;;4956158;28;20278;-75
2024/02/15 09:26:52;;;;;;;9.10;8.20;;;10.40;99.90;;;;;;4951191;28;20674;-75
2024/02/15 09:29:20;;;;;;;9.27;8.23;;;10.40;99.90;;;;;;4950793;28;20632;-75
2024/02/15 09:31:49;;;;;;;11.60;8.60;;;10.40;99.90;;;;;;4966813;28;20245;-75
2024/02/15 09:34:17;;;;;;;9.63;8.63;;;10.40;99.90;;;;;;4988338;28;20249;-75
2024/02/15 09:36:45;;;;;;;8.67;7.77;;;10.50;99.90;;;;;;4989826;28;20217;-75
2024/02/15 09:39:13;;;;;;;10.43;8.40;;;10.40;99.90;;;;;;4990023;28;20214;-75
2024/02/15 09:41:42;;;;;;;9.87;8.30;;;10.50;99.90;;;;;;4989888;28;20337;-75
2024/02/15 09:44:09;;;;;;;8.47;7.67;;;10.50;99.90;;;;;;4989264;28;20579;-75
2024/02/15 09:46:38;;;;;;;9.00;8.10;;;10.50;99.90;;;;;;4984007;28;20207;-75
2024/02/15 09:49:07;;;;;;;9.00;7.90;;;10.50;99.90;;;;;;4989673;28;20229;-75
2024/02/15 09:51:37;;;;;;;9.13;7.77;;;10.50;99.90;;;;;;4988828;28;20712;-75
2024/02/15 09:54:08;;;;;;;10.73;8.37;;;10.50;99.90;;;;;;4979335;28;20274;-75
2024/02/15 09:56:37;;;;;;;8.93;7.70;;;10.60;99.90;;;;;;4969961;28;20639;-75
2024/02/15 09:59:04;;;;;;;9.67;8.67;;;10.70;99.90;;;;;;4970280;28;20225;-73
2024/02/15 10:01:33;;;;;;;7.97;7.10;;;10.60;99.90;;;;;;4969637;28;20313;-74
2024/02/15 10:04:01;;;;;;;8.47;7.30;;;10.80;99.90;;;;;;4969921;28;20203;-74
2024/02/15 10:06:28;;;;;;;9.40;7.73;;;10.70;99.90;;;;;;4969392;28;20776;-74
2024/02/15 10:09:27;;;;;;;7.90;7.03;;;10.80;99.90;;;;;;4969873;28;20238;-74
2024/02/15 10:11:56;;;;;;;6.93;6.33;;;10.90;99.90;;;;;;4969364;28;20686;-74
2024/02/15 10:14:23;;;;;;;7.90;7.13;;;10.90;99.90;;;;;;4969763;28;20253;-74
2024/02/15 10:16:50;;;;;;;7.97;6.83;;;11.00;99.90;;;;;;4969766;28;20310;-74
2024/02/15 10:19:18;;;;;;;7.27;6.53;;;10.90;99.90;;;;;;4969586;28;20207;-74
2024/02/15 10:21:45;;;;;;;7.53;6.70;;;11.00;99.90;;;;;;4969703;28;20410;-74
2024/02/15 10:24:14;;;;;;;6.40;5.90;;;11.20;99.90;;;;;;4956621;28;20366;-74
2024/02/15 10:26:40;;;;;;;6.93;6.43;;;11.30;99.90;;;;;;4950230;28;20215;-74
2024/02/15 10:29:10;;;;;;;6.70;6.00;;;11.20;99.90;;;;;;4950203;29;20211;-74
2024/02/15 10:31:38;;;;;;;6.80;6.27;;;11.10;99.90;;;;;;4950253;29;20250;-74
2024/02/15 10:34:07;;;;;;;6.80;6.10;;;11.10;99.90;;;;;;4949875;29;20881;-74
2024/02/15 10:36:34;;;;;;;6.77;6.27;;;11.10;99.90;;;;;;4949597;28;20668;-74
2024/02/15 10:39:20;;;;;;;6.77;6.17;;;11.10;99.90;;;;;;4949734;29;20302;-74
2024/02/15 10:41:48;;;;;;;6.10;5.70;;;11.10;99.90;;;;;;4965159;28;20245;-74
2024/02/15 10:44:18;;;;;;;6.57;5.97;;;11.20;99.90;;;;;;4969073;28;20269;-74
2024/02/15 10:46:50;;;;;;;6.57;6.00;;;11.10;99.90;;;;;;4968879;28;20213;-74
2024/02/15 10:49:20;;;;;;;5.83;5.43;;;11.10;99.90;;;;;;4968961;28;20199;-74
2024/02/15 10:51:52;;;;;;;5.80;5.10;;;11.10;99.90;;;;;;4969012;28;20246;-74
2024/02/15 10:54:36;;;;;;;6.30;5.80;;;11.20;99.90;;;;;;4969200;28;20242;-74
2024/02/15 10:57:06;;;;;;;5.53;5.10;;;11.30;99.90;;;;;;4969266;28;20195;-73
2024/02/15 10:59:37;;;;;;;6.83;6.20;;;11.20;99.90;;;;;;4969176;28;20210;-74
2024/02/15 11:02:22;;;;;;;5.87;5.40;;;11.30;99.90;;;;;;4968529;28;20202;-74
2024/02/15 11:04:56;;;;;;;5.87;5.30;;;11.30;99.90;;;;;;4968998;28;20206;-74
2024/02/15 11:07:26;;;;;;;4.60;4.20;;;11.40;99.90;;;;;;4968409;28;20194;-74
2024/02/15 11:09:55;;;;;;;4.47;4.07;;;11.50;99.90;;;;;;4968673;28;20218;-74
2024/02/15 11:12:23;;;;;;;4.30;3.97;;;11.50;99.90;;;;;;4968942;28;20266;-74
2024/02/15 11:14:53;;;;;;;5.03;4.63;;;11.60;99.90;;;;;;4968523;28;20690;-74
2024/02/15 11:17:55;;;;;;;3.87;3.60;;;11.70;99.90;;;;;;4968591;28;20215;-74
2024/02/15 11:20:52;;;;;;;3.40;3.10;;;11.70;99.90;;;;;;4968624;28;20285;-74
2024/02/15 11:23:27;;;;;;;3.80;3.43;;;11.70;99.90;;;;;;4962419;28;20243;-74
2024/02/15 11:25:59;;;;;;;3.40;3.10;;;11.70;99.90;;;;;;4948974;29;20565;-74
2024/02/15 11:28:41;;;;;;;3.60;3.30;;;11.80;99.90;;;;;;4949347;29;20202;-74
2024/02/15 11:31:13;;;;;;;3.53;3.23;;;11.70;99.90;;;;;;4947180;28;20243;-74
2024/02/15 11:33:40;;;;;;;3.17;2.90;;;11.70;99.90;;;;;;4948760;28;20758;-74
2024/02/15 11:36:08;;;;;;;3.47;3.17;;;11.70;99.90;;;;;;4948432;28;20844;-74
2024/02/15 11:38:35;;;;;;;3.27;3.07;;;11.70;99.90;;;;;;4967791;28;20631;-74
2024/02/15 11:41:05;;;;;;;3.90;3.50;;;11.70;99.90;;;;;;4968221;28;20305;-74
2024/02/15 11:43:57;;;;;;;3.90;3.60;;;11.80;99.90;;;;;;4968354;28;20223;-74
2024/02/15 11:46:29;;;;;;;4.93;4.00;;;11.80;99.90;;;;;;4968080;28;20673;-74
2024/02/15 11:48:56;;;;;;;3.70;3.40;;;12.00;99.90;;;;;;4968392;28;20199;-74
2024/02/15 11:51:27;;;;;;;3.43;3.23;;;12.10;99.90;;;;;;4967581;28;21059;-74
2024/02/15 11:54:06;;;;;;;3.10;2.90;;;12.20;99.90;;;;;;4967593;28;20705;-74
2024/02/15 11:56:54;;;;;;;3.63;3.33;;;12.20;99.90;;;;;;4968196;28;20265;-74
2024/02/15 11:59:31;;;;;;;3.37;3.10;;;12.20;99.90;;;;;;4972033;28;20206;-74
2024/02/15 12:18:47;;;;;;;2.73;2.60;;;11.70;99.90;;;;;;4971550;28;20218;-74
2024/02/15 12:21:17;;;;;;;3.40;2.80;;;11.60;99.90;;;;;;4971383;28;20253;-74
2024/02/15 12:23:45;;;;;;;3.20;3.00;;;11.60;99.90;;;;;;4962225;28;20239;-74
2024/02/15 12:26:14;;;;;;;2.90;2.70;;;11.60;99.90;;;;;;4952140;28;20306;-74
2024/02/15 12:28:44;;;;;;;3.33;3.03;;;11.60;99.90;;;;;;4952379;28;21080;-74
2024/02/15 12:31:13;;;;;;;3.87;3.00;;;11.60;99.90;;;;;;4951872;28;20325;-74
2024/02/15 12:33:40;;;;;;;3.20;3.00;;;11.70;99.90;;;;;;4962641;28;20215;-74
2024/02/15 12:36:07;;;;;;;3.60;3.40;;;11.70;99.90;;;;;;4970947;28;20290;-74
2024/02/15 12:38:37;;;;;;;3.40;3.20;;;11.70;99.90;;;;;;4971324;28;20211;-74
2024/02/15 12:41:04;;;;;;;4.10;3.53;;;11.70;99.90;;;;;;4971019;28;20229;-74
2024/02/15 12:43:31;;;;;;;3.93;3.63;;;11.70;99.90;;;;;;4971171;28;20250;-74
2024/02/15 12:46:00;;;;;;;4.87;3.90;;;11.70;99.90;;;;;;4971034;28;20294;-74
2024/02/15 12:48:27;;;;;;;3.77;3.53;;;11.70;99.90;;;;;;4970661;28;20306;-74
2024/02/15 12:50:55;;;;;;;3.77;3.47;;;11.70;99.90;;;;;;4970689;28;20221;-74
2024/02/15 12:53:23;;;;;;;3.50;3.20;;;11.80;99.90;;;;;;4970990;28;20218;-75
2024/02/15 12:55:55;;;;;;;3.23;3.03;;;11.70;99.90;;;;;;4971285;28;20207;-74
2024/02/15 12:58:24;;;;;;;3.03;2.83;;;11.80;99.90;;;;;;4971225;28;20218;-75
2024/02/15 13:00:51;;;;;;;3.13;2.97;;;11.80;99.90;;;;;;4970984;28;20215;-74
2024/02/15 13:03:19;;;;;;;3.50;3.10;;;11.90;99.90;;;;;;4970857;28;20246;-74
2024/02/15 13:05:47;;;;;;;3.23;3.00;;;11.90;99.90;;;;;;4971221;28;20235;-74
2024/02/15 13:08:18;;;;;;;2.73;2.53;;;11.90;99.90;;;;;;4970269;28;20640;-75
2024/02/15 13:10:45;;;;;;;3.37;3.17;;;11.90;99.90;;;;;;4971130;28;20198;-74
2024/02/15 13:13:13;;;;;;;2.90;2.80;;;11.90;99.90;;;;;;4970550;28;20282;-74
2024/02/15 13:15:46;;;;;;;3.07;2.77;;;12.00;99.90;;;;;;4970981;28;20211;-75
2024/02/15 13:18:13;;;;;;;2.63;2.53;;;12.10;99.90;;;;;;4970898;28;20238;-75